sensor_id;sensor_type;location;lat;lon;timestamp;temperature;humidity
18906;DHT22;9585;51.018;4.282;2023-08-17T00:01:44;18.20;99.90
18906;DHT22;9585;51.018;4.282;2023-08-17T00:04:11;18.20;99.90
18906;DHT22;9585;51.018;4.282;2023-08-17T00:06:38;18.30;99.90
18906;DHT22;9585;51.018;4.282;2023-08-17T00:09:06;18.40;99.90
18906;DHT22;9585;51.018;4.282;2023-08-17T00:11:35;18.30;99.90
18906;DHT22;9585;51.018;4.282;2023-08-17T00:14:03;18.30;99.90
18906;DHT22;9585;51.018;4.282;2023-08-17T00:16:30;18.30;99.90
18906;DHT22;9585;51.018;4.282;2023-08-17T00:18:57;18.20;99.90
18906;DHT22;9585;51.018;4.282;2023-08-17T00:21:25;18.10;99.90
18906;DHT22;9585;51.018;4.282;2023-08-17T00:23:52;18.10;99.90
18906;DHT22;9585;51.018;4.282;2023-08-17T00:26:20;18.20;99.90
18906;DHT22;9585;51.018;4.282;2023-08-17T00:28:49;18.20;99.90
18906;DHT22;9585;51.018;4.282;2023-08-17T00:31:19;18.20;99.90
18906;DHT22;9585;51.018;4.282;2023-08-17T00:33:46;18.20;99.90
18906;DHT22;9585;51.018;4.282;2023-08-17T00:36:14;18.10;99.90
18906;DHT22;9585;51.018;4.282;2023-08-17T00:38:41;18.10;99.90
18906;DHT22;9585;51.018;4.282;2023-08-17T00:41:09;18.10;99.90
18906;DHT22;9585;51.018;4.282;2023-08-17T00:43:36;18.10;99.90
18906;DHT22;9585;51.018;4.282;2023-08-17T00:46:05;18.10;99.90
18906;DHT22;9585;51.018;4.282;2023-08-17T00:48:34;18.10;99.90
18906;DHT22;9585;51.018;4.282;2023-08-17T00:51:02;18.00;99.90
18906;DHT22;9585;51.018;4.282;2023-08-17T00:53:31;18.00;99.90
18906;DHT22;9585;51.018;4.282;2023-08-17T00:55:59;18.00;99.90
18906;DHT22;9585;51.018;4.282;2023-08-17T00:58:28;18.00;99.90
18906;DHT22;9585;51.018;4.282;2023-08-17T01:00:55;18.10;99.90
18906;DHT22;9585;51.018;4.282;2023-08-17T01:03:28;18.00;99.90
18906;DHT22;9585;51.018;4.282;2023-08-17T01:05:56;18.00;99.90
18906;DHT22;9585;51.018;4.282;2023-08-17T01:08:24;18.00;99.90
18906;DHT22;9585;51.018;4.282;2023-08-17T01:10:57;18.00;99.90
18906;DHT22;9585;51.018;4.282;2023-08-17T01:13:34;17.90;99.90
18906;DHT22;9585;51.018;4.282;2023-08-17T01:16:05;17.80;99.90
18906;DHT22;9585;51.018;4.282;2023-08-17T01:18:37;17.70;99.90
18906;DHT22;9585;51.018;4.282;2023-08-17T01:21:10;17.60;99.90
18906;DHT22;9585;51.018;4.282;2023-08-17T01:23:44;17.60;99.90
18906;DHT22;9585;51.018;4.282;2023-08-17T01:26:11;17.60;99.90
18906;DHT22;9585;51.018;4.282;2023-08-17T01:28:42;17.60;99.90
18906;DHT22;9585;51.018;4.282;2023-08-17T01:31:13;17.50;99.90
18906;DHT22;9585;51.018;4.282;2023-08-17T01:33:48;17.50;99.90
18906;DHT22;9585;51.018;4.282;2023-08-17T01:36:20;17.40;99.90
18906;DHT22;9585;51.018;4.282;2023-08-17T01:38:51;17.40;99.90
18906;DHT22;9585;51.018;4.282;2023-08-17T01:41:21;17.40;99.90
18906;DHT22;9585;51.018;4.282;2023-08-17T01:43:50;17.50;99.90
18906;DHT22;9585;51.018;4.282;2023-08-17T01:46:18;17.40;99.90
18906;DHT22;9585;51.018;4.282;2023-08-17T01:48:46;17.40;99.90
18906;DHT22;9585;51.018;4.282;2023-08-17T01:51:18;17.40;99.90
18906;DHT22;9585;51.018;4.282;2023-08-17T01:53:46;17.40;99.90
18906;DHT22;9585;51.018;4.282;2023-08-17T01:59:07;17.30;99.90
18906;DHT22;9585;51.018;4.282;2023-08-17T02:01:34;17.30;99.90
18906;DHT22;9585;51.018;4.282;2023-08-17T02:04:03;17.30;99.90
18906;DHT22;9585;51.018;4.282;2023-08-17T02:06:30;17.30;99.90
18906;DHT22;9585;51.018;4.282;2023-08-17T02:09:30;17.20;99.90
18906;DHT22;9585;51.018;4.282;2023-08-17T02:11:57;17.20;99.90
18906;DHT22;9585;51.018;4.282;2023-08-17T02:14:26;17.10;99.90
18906;DHT22;9585;51.018;4.282;2023-08-17T02:16:54;17.10;99.90
18906;DHT22;9585;51.018;4.282;2023-08-17T02:19:21;17.00;99.90
18906;DHT22;9585;51.018;4.282;2023-08-17T02:21:48;17.00;99.90
18906;DHT22;9585;51.018;4.282;2023-08-17T02:24:16;16.90;99.90
18906;DHT22;9585;51.018;4.282;2023-08-17T02:26:43;16.90;99.90
18906;DHT22;9585;51.018;4.282;2023-08-17T02:29:13;16.80;99.90
18906;DHT22;9585;51.018;4.282;2023-08-17T02:31:42;16.80;99.90
18906;DHT22;9585;51.018;4.282;2023-08-17T02:34:10;16.70;99.90
18906;DHT22;9585;51.018;4.282;2023-08-17T02:36:38;16.70;99.90
18906;DHT22;9585;51.018;4.282;2023-08-17T02:39:06;16.70;99.90
18906;DHT22;9585;51.018;4.282;2023-08-17T02:41:39;16.60;99.90
18906;DHT22;9585;51.018;4.282;2023-08-17T02:44:07;16.60;99.90
18906;DHT22;9585;51.018;4.282;2023-08-17T02:46:35;16.60;99.90
18906;DHT22;9585;51.018;4.282;2023-08-17T02:49:04;16.60;99.90
18906;DHT22;9585;51.018;4.282;2023-08-17T02:51:32;16.60;99.90
18906;DHT22;9585;51.018;4.282;2023-08-17T02:54:00;16.60;99.90
18906;DHT22;9585;51.018;4.282;2023-08-17T02:56:27;16.60;99.90
18906;DHT22;9585;51.018;4.282;2023-08-17T02:58:55;16.60;99.90
18906;DHT22;9585;51.018;4.282;2023-08-17T03:01:22;16.60;99.90
18906;DHT22;9585;51.018;4.282;2023-08-17T03:03:50;16.60;99.90
18906;DHT22;9585;51.018;4.282;2023-08-17T03:06:19;16.50;99.90
18906;DHT22;9585;51.018;4.282;2023-08-17T03:08:46;16.50;99.90
18906;DHT22;9585;51.018;4.282;2023-08-17T03:11:13;16.50;99.90
18906;DHT22;9585;51.018;4.282;2023-08-17T03:13:41;16.50;99.90
18906;DHT22;9585;51.018;4.282;2023-08-17T03:16:08;16.50;99.90
18906;DHT22;9585;51.018;4.282;2023-08-17T03:18:36;16.60;99.90
18906;DHT22;9585;51.018;4.282;2023-08-17T03:21:03;16.60;99.90
18906;DHT22;9585;51.018;4.282;2023-08-17T03:23:32;16.60;99.90
18906;DHT22;9585;51.018;4.282;2023-08-17T03:26:00;16.60;99.90
18906;DHT22;9585;51.018;4.282;2023-08-17T03:28:28;16.60;99.90
18906;DHT22;9585;51.018;4.282;2023-08-17T03:30:55;16.60;99.90
18906;DHT22;9585;51.018;4.282;2023-08-17T03:33:23;16.60;99.90
18906;DHT22;9585;51.018;4.282;2023-08-17T03:35:51;16.60;99.90
18906;DHT22;9585;51.018;4.282;2023-08-17T03:38:18;16.60;99.90
18906;DHT22;9585;51.018;4.282;2023-08-17T03:41:00;16.70;99.90
18906;DHT22;9585;51.018;4.282;2023-08-17T03:43:30;16.70;99.90
18906;DHT22;9585;51.018;4.282;2023-08-17T03:45:57;16.70;99.90
18906;DHT22;9585;51.018;4.282;2023-08-17T03:48:25;16.70;99.90
18906;DHT22;9585;51.018;4.282;2023-08-17T03:50:54;16.70;99.90
18906;DHT22;9585;51.018;4.282;2023-08-17T03:53:22;16.80;99.90
18906;DHT22;9585;51.018;4.282;2023-08-17T03:55:52;16.70;99.90
18906;DHT22;9585;51.018;4.282;2023-08-17T03:58:19;16.70;99.90
18906;DHT22;9585;51.018;4.282;2023-08-17T04:00:49;16.70;99.90
18906;DHT22;9585;51.018;4.282;2023-08-17T04:03:18;16.70;99.90
18906;DHT22;9585;51.018;4.282;2023-08-17T04:05:45;16.80;99.90
18906;DHT22;9585;51.018;4.282;2023-08-17T04:08:13;16.70;99.90
18906;DHT22;9585;51.018;4.282;2023-08-17T04:10:41;16.70;99.90
18906;DHT22;9585;51.018;4.282;2023-08-17T04:13:10;16.80;99.90
18906;DHT22;9585;51.018;4.282;2023-08-17T04:15:37;16.80;99.90
18906;DHT22;9585;51.018;4.282;2023-08-17T04:18:05;16.80;99.90
18906;DHT22;9585;51.018;4.282;2023-08-17T04:20:32;16.70;99.90
18906;DHT22;9585;51.018;4.282;2023-08-17T04:23:00;16.70;99.90
18906;DHT22;9585;51.018;4.282;2023-08-17T04:25:27;16.70;99.90
18906;DHT22;9585;51.018;4.282;2023-08-17T04:27:55;16.70;99.90
18906;DHT22;9585;51.018;4.282;2023-08-17T04:30:24;16.60;99.90
18906;DHT22;9585;51.018;4.282;2023-08-17T04:32:52;16.60;99.90
18906;DHT22;9585;51.018;4.282;2023-08-17T04:35:19;16.60;99.90
18906;DHT22;9585;51.018;4.282;2023-08-17T04:37:47;16.60;99.90
18906;DHT22;9585;51.018;4.282;2023-08-17T04:40:15;16.60;99.90
18906;DHT22;9585;51.018;4.282;2023-08-17T04:42:42;16.60;99.90
18906;DHT22;9585;51.018;4.282;2023-08-17T04:45:10;16.60;99.90
18906;DHT22;9585;51.018;4.282;2023-08-17T04:47:40;16.50;99.90
18906;DHT22;9585;51.018;4.282;2023-08-17T04:50:08;16.50;99.90
18906;DHT22;9585;51.018;4.282;2023-08-17T04:52:35;16.50;99.90
18906;DHT22;9585;51.018;4.282;2023-08-17T04:55:03;16.40;99.90
18906;DHT22;9585;51.018;4.282;2023-08-17T04:57:31;16.50;99.90
18906;DHT22;9585;51.018;4.282;2023-08-17T04:59:59;16.50;99.90
18906;DHT22;9585;51.018;4.282;2023-08-17T05:02:26;16.60;99.90
18906;DHT22;9585;51.018;4.282;2023-08-17T05:04:55;16.60;99.90
18906;DHT22;9585;51.018;4.282;2023-08-17T05:07:22;16.50;99.90
18906;DHT22;9585;51.018;4.282;2023-08-17T05:09:50;16.60;99.90
18906;DHT22;9585;51.018;4.282;2023-08-17T05:12:18;16.60;99.90
18906;DHT22;9585;51.018;4.282;2023-08-17T05:14:45;16.60;99.90
18906;DHT22;9585;51.018;4.282;2023-08-17T05:17:13;16.60;99.90
18906;DHT22;9585;51.018;4.282;2023-08-17T05:19:40;16.60;99.90
18906;DHT22;9585;51.018;4.282;2023-08-17T05:22:11;16.60;99.90
18906;DHT22;9585;51.018;4.282;2023-08-17T05:24:39;16.60;99.90
18906;DHT22;9585;51.018;4.282;2023-08-17T05:27:07;16.60;99.90
18906;DHT22;9585;51.018;4.282;2023-08-17T05:29:35;16.70;99.90
18906;DHT22;9585;51.018;4.282;2023-08-17T05:32:02;16.70;99.90
18906;DHT22;9585;51.018;4.282;2023-08-17T05:34:30;16.70;99.90
18906;DHT22;9585;51.018;4.282;2023-08-17T05:36:57;16.70;99.90
18906;DHT22;9585;51.018;4.282;2023-08-17T05:39:27;16.70;99.90
18906;DHT22;9585;51.018;4.282;2023-08-17T05:41:54;16.70;99.90
18906;DHT22;9585;51.018;4.282;2023-08-17T05:44:22;16.70;99.90
18906;DHT22;9585;51.018;4.282;2023-08-17T05:46:49;16.70;99.90
18906;DHT22;9585;51.018;4.282;2023-08-17T05:49:16;16.70;99.90
18906;DHT22;9585;51.018;4.282;2023-08-17T05:51:44;16.80;99.90
18906;DHT22;9585;51.018;4.282;2023-08-17T05:54:12;16.80;99.90
18906;DHT22;9585;51.018;4.282;2023-08-17T05:56:41;16.70;99.90
18906;DHT22;9585;51.018;4.282;2023-08-17T05:59:12;16.70;99.90
18906;DHT22;9585;51.018;4.282;2023-08-17T06:01:40;16.70;99.90
18906;DHT22;9585;51.018;4.282;2023-08-17T06:04:07;16.70;99.90
18906;DHT22;9585;51.018;4.282;2023-08-17T06:06:35;16.70;99.90
18906;DHT22;9585;51.018;4.282;2023-08-17T06:09:03;16.70;99.90
18906;DHT22;9585;51.018;4.282;2023-08-17T06:11:30;16.70;99.90
18906;DHT22;9585;51.018;4.282;2023-08-17T06:13:59;16.70;99.90
18906;DHT22;9585;51.018;4.282;2023-08-17T06:16:27;16.70;99.90
18906;DHT22;9585;51.018;4.282;2023-08-17T06:18:54;16.70;99.90
18906;DHT22;9585;51.018;4.282;2023-08-17T06:21:22;16.70;99.90
18906;DHT22;9585;51.018;4.282;2023-08-17T06:23:49;16.70;99.90
18906;DHT22;9585;51.018;4.282;2023-08-17T06:26:17;16.80;99.90
18906;DHT22;9585;51.018;4.282;2023-08-17T06:28:45;16.90;99.90
18906;DHT22;9585;51.018;4.282;2023-08-17T06:31:16;16.90;99.90
18906;DHT22;9585;51.018;4.282;2023-08-17T06:33:44;16.90;99.90
18906;DHT22;9585;51.018;4.282;2023-08-17T06:36:12;17.00;99.90
18906;DHT22;9585;51.018;4.282;2023-08-17T06:38:42;17.00;99.90
18906;DHT22;9585;51.018;4.282;2023-08-17T06:41:10;17.00;99.90
18906;DHT22;9585;51.018;4.282;2023-08-17T06:43:38;16.90;99.90
18906;DHT22;9585;51.018;4.282;2023-08-17T06:46:05;16.90;99.90
18906;DHT22;9585;51.018;4.282;2023-08-17T06:48:34;16.90;99.90
18906;DHT22;9585;51.018;4.282;2023-08-17T06:51:02;16.90;99.90
18906;DHT22;9585;51.018;4.282;2023-08-17T06:53:30;16.80;99.90
18906;DHT22;9585;51.018;4.282;2023-08-17T06:55:58;16.80;99.90
18906;DHT22;9585;51.018;4.282;2023-08-17T06:58:26;16.90;99.90
18906;DHT22;9585;51.018;4.282;2023-08-17T07:00:53;16.90;99.90
18906;DHT22;9585;51.018;4.282;2023-08-17T07:03:20;16.90;99.90
18906;DHT22;9585;51.018;4.282;2023-08-17T07:05:49;16.90;99.90
18906;DHT22;9585;51.018;4.282;2023-08-17T07:08:17;17.00;99.90
18906;DHT22;9585;51.018;4.282;2023-08-17T07:10:44;17.10;99.90
18906;DHT22;9585;51.018;4.282;2023-08-17T07:13:11;17.20;99.90
18906;DHT22;9585;51.018;4.282;2023-08-17T07:15:38;17.20;99.90
18906;DHT22;9585;51.018;4.282;2023-08-17T07:18:06;17.20;99.90
18906;DHT22;9585;51.018;4.282;2023-08-17T07:20:33;17.20;99.90
18906;DHT22;9585;51.018;4.282;2023-08-17T07:23:02;17.10;99.90
18906;DHT22;9585;51.018;4.282;2023-08-17T07:25:30;17.20;99.90
18906;DHT22;9585;51.018;4.282;2023-08-17T07:27:58;17.10;99.90
18906;DHT22;9585;51.018;4.282;2023-08-17T07:30:25;17.00;99.90
18906;DHT22;9585;51.018;4.282;2023-08-17T07:32:53;17.10;99.90
18906;DHT22;9585;51.018;4.282;2023-08-17T07:35:20;17.00;99.90
18906;DHT22;9585;51.018;4.282;2023-08-17T07:37:48;16.80;99.90
18906;DHT22;9585;51.018;4.282;2023-08-17T07:40:19;16.60;99.90
18906;DHT22;9585;51.018;4.282;2023-08-17T07:42:53;16.60;99.90
18906;DHT22;9585;51.018;4.282;2023-08-17T07:45:34;16.80;99.90
18906;DHT22;9585;51.018;4.282;2023-08-17T07:48:02;16.90;99.90
18906;DHT22;9585;51.018;4.282;2023-08-17T07:50:29;17.10;99.90
18906;DHT22;9585;51.018;4.282;2023-08-17T07:52:56;17.10;99.90
18906;DHT22;9585;51.018;4.282;2023-08-17T07:55:26;17.30;99.90
18906;DHT22;9585;51.018;4.282;2023-08-17T07:57:54;17.50;99.90
18906;DHT22;9585;51.018;4.282;2023-08-17T08:00:21;17.60;99.90
18906;DHT22;9585;51.018;4.282;2023-08-17T08:02:48;17.80;99.90
18906;DHT22;9585;51.018;4.282;2023-08-17T08:05:16;18.00;99.90
18906;DHT22;9585;51.018;4.282;2023-08-17T08:07:43;18.10;99.90
18906;DHT22;9585;51.018;4.282;2023-08-17T08:10:10;18.10;99.90
18906;DHT22;9585;51.018;4.282;2023-08-17T08:12:39;18.10;99.90
18906;DHT22;9585;51.018;4.282;2023-08-17T08:15:08;18.20;99.90
18906;DHT22;9585;51.018;4.282;2023-08-17T08:17:35;18.10;99.90
18906;DHT22;9585;51.018;4.282;2023-08-17T08:20:03;18.20;99.90
18906;DHT22;9585;51.018;4.282;2023-08-17T08:22:30;18.30;99.90
18906;DHT22;9585;51.018;4.282;2023-08-17T08:24:58;18.50;99.90
18906;DHT22;9585;51.018;4.282;2023-08-17T08:27:25;18.70;99.90
18906;DHT22;9585;51.018;4.282;2023-08-17T08:29:54;18.70;99.90
18906;DHT22;9585;51.018;4.282;2023-08-17T08:32:22;18.60;99.90
18906;DHT22;9585;51.018;4.282;2023-08-17T08:34:50;18.70;99.90
18906;DHT22;9585;51.018;4.282;2023-08-17T08:37:17;18.90;99.90
18906;DHT22;9585;51.018;4.282;2023-08-17T08:39:48;18.90;99.90
18906;DHT22;9585;51.018;4.282;2023-08-17T08:42:17;18.90;99.90
18906;DHT22;9585;51.018;4.282;2023-08-17T08:44:45;19.00;99.90
18906;DHT22;9585;51.018;4.282;2023-08-17T08:47:14;19.10;99.90
18906;DHT22;9585;51.018;4.282;2023-08-17T08:49:49;19.20;99.90
18906;DHT22;9585;51.018;4.282;2023-08-17T08:52:22;19.30;99.90
18906;DHT22;9585;51.018;4.282;2023-08-17T08:54:50;19.10;99.90
18906;DHT22;9585;51.018;4.282;2023-08-17T08:57:20;19.00;99.90
18906;DHT22;9585;51.018;4.282;2023-08-17T08:59:48;18.70;99.90
18906;DHT22;9585;51.018;4.282;2023-08-17T09:02:18;18.50;99.90
18906;DHT22;9585;51.018;4.282;2023-08-17T09:04:46;18.40;99.90
18906;DHT22;9585;51.018;4.282;2023-08-17T09:07:14;18.40;99.90
18906;DHT22;9585;51.018;4.282;2023-08-17T09:09:45;18.50;99.90
18906;DHT22;9585;51.018;4.282;2023-08-17T09:12:15;18.60;99.90
18906;DHT22;9585;51.018;4.282;2023-08-17T09:14:43;18.70;99.90
18906;DHT22;9585;51.018;4.282;2023-08-17T09:17:11;18.70;99.90
18906;DHT22;9585;51.018;4.282;2023-08-17T09:19:40;18.80;99.90
18906;DHT22;9585;51.018;4.282;2023-08-17T09:22:07;18.90;99.90
18906;DHT22;9585;51.018;4.282;2023-08-17T09:24:35;19.00;99.90
18906;DHT22;9585;51.018;4.282;2023-08-17T09:27:03;18.80;99.90
18906;DHT22;9585;51.018;4.282;2023-08-17T09:29:33;19.00;99.90
18906;DHT22;9585;51.018;4.282;2023-08-17T09:32:07;18.90;99.90
18906;DHT22;9585;51.018;4.282;2023-08-17T09:34:53;18.70;99.90
18906;DHT22;9585;51.018;4.282;2023-08-17T09:37:21;18.70;99.90
18906;DHT22;9585;51.018;4.282;2023-08-17T09:39:52;18.80;99.90
18906;DHT22;9585;51.018;4.282;2023-08-17T09:42:22;19.00;99.90
18906;DHT22;9585;51.018;4.282;2023-08-17T09:44:54;19.40;99.90
18906;DHT22;9585;51.018;4.282;2023-08-17T09:47:36;19.30;99.90
18906;DHT22;9585;51.018;4.282;2023-08-17T10:00:35;20.90;99.90
18906;DHT22;9585;51.018;4.282;2023-08-17T10:03:29;20.90;99.90
18906;DHT22;9585;51.018;4.282;2023-08-17T10:06:09;21.10;99.90
18906;DHT22;9585;51.018;4.282;2023-08-17T10:08:44;21.10;99.90
18906;DHT22;9585;51.018;4.282;2023-08-17T10:11:14;21.10;99.90
18906;DHT22;9585;51.018;4.282;2023-08-17T10:13:48;21.10;99.90
18906;DHT22;9585;51.018;4.282;2023-08-17T10:16:26;21.10;99.90
18906;DHT22;9585;51.018;4.282;2023-08-17T10:19:01;20.90;99.90
18906;DHT22;9585;51.018;4.282;2023-08-17T10:21:37;20.50;99.90
18906;DHT22;9585;51.018;4.282;2023-08-17T10:24:06;20.30;99.90
18906;DHT22;9585;51.018;4.282;2023-08-17T10:26:35;20.20;99.90
18906;DHT22;9585;51.018;4.282;2023-08-17T10:29:02;20.30;99.90
18906;DHT22;9585;51.018;4.282;2023-08-17T10:31:34;20.20;99.90
18906;DHT22;9585;51.018;4.282;2023-08-17T10:34:05;20.20;99.90
18906;DHT22;9585;51.018;4.282;2023-08-17T10:36:34;20.40;99.90
18906;DHT22;9585;51.018;4.282;2023-08-17T10:39:29;20.70;99.90
18906;DHT22;9585;51.018;4.282;2023-08-17T10:42:00;20.60;99.90
18906;DHT22;9585;51.018;4.282;2023-08-17T10:44:39;20.50;99.90
18906;DHT22;9585;51.018;4.282;2023-08-17T10:47:25;20.30;99.90
18906;DHT22;9585;51.018;4.282;2023-08-17T10:50:01;20.20;99.90
18906;DHT22;9585;51.018;4.282;2023-08-17T10:52:30;20.20;99.90
18906;DHT22;9585;51.018;4.282;2023-08-17T10:55:00;20.40;99.90
18906;DHT22;9585;51.018;4.282;2023-08-17T10:57:32;20.30;99.90
18906;DHT22;9585;51.018;4.282;2023-08-17T11:00:14;20.20;99.90
18906;DHT22;9585;51.018;4.282;2023-08-17T11:02:56;20.20;99.90
18906;DHT22;9585;51.018;4.282;2023-08-17T11:05:39;20.30;99.90
18906;DHT22;9585;51.018;4.282;2023-08-17T11:08:08;20.10;99.90
18906;DHT22;9585;51.018;4.282;2023-08-17T11:10:36;19.90;99.90
18906;DHT22;9585;51.018;4.282;2023-08-17T11:13:04;19.80;99.90
18906;DHT22;9585;51.018;4.282;2023-08-17T11:15:37;19.40;99.90
18906;DHT22;9585;51.018;4.282;2023-08-17T11:18:10;19.30;99.90
18906;DHT22;9585;51.018;4.282;2023-08-17T11:20:40;19.40;99.90
18906;DHT22;9585;51.018;4.282;2023-08-17T11:23:09;19.50;99.90
18906;DHT22;9585;51.018;4.282;2023-08-17T11:25:37;19.60;99.90
18906;DHT22;9585;51.018;4.282;2023-08-17T11:28:07;19.60;99.90
18906;DHT22;9585;51.018;4.282;2023-08-17T11:30:35;19.20;99.90
18906;DHT22;9585;51.018;4.282;2023-08-17T11:33:05;19.40;99.90
18906;DHT22;9585;51.018;4.282;2023-08-17T11:35:35;19.40;99.90
18906;DHT22;9585;51.018;4.282;2023-08-17T11:38:03;19.10;99.90
18906;DHT22;9585;51.018;4.282;2023-08-17T11:40:32;19.10;99.90
18906;DHT22;9585;51.018;4.282;2023-08-17T11:43:00;19.20;99.90
18906;DHT22;9585;51.018;4.282;2023-08-17T11:45:28;19.40;99.90
18906;DHT22;9585;51.018;4.282;2023-08-17T11:47:56;19.50;99.90
18906;DHT22;9585;51.018;4.282;2023-08-17T11:50:24;19.40;99.90
18906;DHT22;9585;51.018;4.282;2023-08-17T11:52:53;19.10;99.90
18906;DHT22;9585;51.018;4.282;2023-08-17T11:55:21;19.10;99.90
18906;DHT22;9585;51.018;4.282;2023-08-17T11:57:48;19.00;99.90
18906;DHT22;9585;51.018;4.282;2023-08-17T12:00:20;19.00;99.90
18906;DHT22;9585;51.018;4.282;2023-08-17T12:02:48;19.10;99.90
18906;DHT22;9585;51.018;4.282;2023-08-17T12:05:21;19.30;99.90
18906;DHT22;9585;51.018;4.282;2023-08-17T12:07:50;19.40;99.90
18906;DHT22;9585;51.018;4.282;2023-08-17T12:10:22;19.30;99.90
18906;DHT22;9585;51.018;4.282;2023-08-17T12:12:50;19.20;99.90
18906;DHT22;9585;51.018;4.282;2023-08-17T12:15:17;19.20;99.90
18906;DHT22;9585;51.018;4.282;2023-08-17T12:17:46;19.40;99.90
18906;DHT22;9585;51.018;4.282;2023-08-17T12:20:17;19.60;99.90
18906;DHT22;9585;51.018;4.282;2023-08-17T12:22:45;19.80;99.90
18906;DHT22;9585;51.018;4.282;2023-08-17T12:25:13;20.00;99.90
18906;DHT22;9585;51.018;4.282;2023-08-17T12:27:42;20.20;99.90
18906;DHT22;9585;51.018;4.282;2023-08-17T12:30:23;20.40;99.90
18906;DHT22;9585;51.018;4.282;2023-08-17T12:32:52;20.70;99.90
18906;DHT22;9585;51.018;4.282;2023-08-17T12:35:20;20.80;99.90
18906;DHT22;9585;51.018;4.282;2023-08-17T12:37:50;20.80;99.90
18906;DHT22;9585;51.018;4.282;2023-08-17T12:40:18;20.90;99.90
18906;DHT22;9585;51.018;4.282;2023-08-17T12:42:48;20.90;99.90
18906;DHT22;9585;51.018;4.282;2023-08-17T12:45:16;20.90;99.90
18906;DHT22;9585;51.018;4.282;2023-08-17T12:47:44;20.80;99.90
18906;DHT22;9585;51.018;4.282;2023-08-17T12:50:13;20.70;99.90
18906;DHT22;9585;51.018;4.282;2023-08-17T12:52:41;20.80;99.90
18906;DHT22;9585;51.018;4.282;2023-08-17T12:55:09;20.90;99.90
18906;DHT22;9585;51.018;4.282;2023-08-17T12:57:37;20.50;99.90
18906;DHT22;9585;51.018;4.282;2023-08-17T13:00:07;20.20;99.90
18906;DHT22;9585;51.018;4.282;2023-08-17T13:02:35;20.30;99.90
18906;DHT22;9585;51.018;4.282;2023-08-17T13:05:03;20.40;99.90
18906;DHT22;9585;51.018;4.282;2023-08-17T13:07:31;20.30;99.90
18906;DHT22;9585;51.018;4.282;2023-08-17T13:09:58;20.30;99.90
18906;DHT22;9585;51.018;4.282;2023-08-17T13:12:26;19.90;99.90
18906;DHT22;9585;51.018;4.282;2023-08-17T13:14:54;19.70;99.90
18906;DHT22;9585;51.018;4.282;2023-08-17T13:17:23;19.90;99.90
18906;DHT22;9585;51.018;4.282;2023-08-17T13:19:51;20.20;99.90
18906;DHT22;9585;51.018;4.282;2023-08-17T13:22:19;19.80;99.90
18906;DHT22;9585;51.018;4.282;2023-08-17T13:24:47;19.90;99.90
18906;DHT22;9585;51.018;4.282;2023-08-17T13:27:14;20.20;99.90
18906;DHT22;9585;51.018;4.282;2023-08-17T13:29:42;20.00;99.90
18906;DHT22;9585;51.018;4.282;2023-08-17T13:32:10;20.30;99.90
18906;DHT22;9585;51.018;4.282;2023-08-17T13:34:39;20.40;99.90
18906;DHT22;9585;51.018;4.282;2023-08-17T13:37:07;20.30;99.90
18906;DHT22;9585;51.018;4.282;2023-08-17T13:39:34;20.40;99.90
18906;DHT22;9585;51.018;4.282;2023-08-17T13:42:02;20.60;99.90
18906;DHT22;9585;51.018;4.282;2023-08-17T13:44:30;20.60;99.90
18906;DHT22;9585;51.018;4.282;2023-08-17T13:46:58;20.70;99.90
18906;DHT22;9585;51.018;4.282;2023-08-17T13:49:25;20.80;99.90
18906;DHT22;9585;51.018;4.282;2023-08-17T13:51:55;20.70;99.90
18906;DHT22;9585;51.018;4.282;2023-08-17T13:54:23;20.50;99.90
18906;DHT22;9585;51.018;4.282;2023-08-17T13:56:51;20.50;99.90
18906;DHT22;9585;51.018;4.282;2023-08-17T13:59:19;20.20;99.90
18906;DHT22;9585;51.018;4.282;2023-08-17T14:01:47;20.40;99.90
18906;DHT22;9585;51.018;4.282;2023-08-17T14:04:14;20.60;99.90
18906;DHT22;9585;51.018;4.282;2023-08-17T14:06:43;20.60;99.90
18906;DHT22;9585;51.018;4.282;2023-08-17T14:09:12;20.80;99.90
18906;DHT22;9585;51.018;4.282;2023-08-17T14:11:40;20.90;99.90
18906;DHT22;9585;51.018;4.282;2023-08-17T14:14:08;20.90;99.90
18906;DHT22;9585;51.018;4.282;2023-08-17T14:16:36;20.90;99.90
18906;DHT22;9585;51.018;4.282;2023-08-17T14:19:04;20.80;99.90
18906;DHT22;9585;51.018;4.282;2023-08-17T14:21:32;20.70;99.90
18906;DHT22;9585;51.018;4.282;2023-08-17T14:23:59;20.70;99.90
18906;DHT22;9585;51.018;4.282;2023-08-17T14:26:29;20.80;99.90
18906;DHT22;9585;51.018;4.282;2023-08-17T14:28:56;20.90;99.90
18906;DHT22;9585;51.018;4.282;2023-08-17T14:31:24;21.00;99.90
18906;DHT22;9585;51.018;4.282;2023-08-17T14:33:52;21.10;99.90
18906;DHT22;9585;51.018;4.282;2023-08-17T14:36:19;21.40;99.90
18906;DHT22;9585;51.018;4.282;2023-08-17T14:38:47;21.40;99.90
18906;DHT22;9585;51.018;4.282;2023-08-17T14:41:15;21.50;99.90
18906;DHT22;9585;51.018;4.282;2023-08-17T14:43:45;21.50;99.90
18906;DHT22;9585;51.018;4.282;2023-08-17T14:46:13;21.40;99.90
18906;DHT22;9585;51.018;4.282;2023-08-17T14:48:41;21.70;99.90
18906;DHT22;9585;51.018;4.282;2023-08-17T14:51:09;21.60;99.90
18906;DHT22;9585;51.018;4.282;2023-08-17T14:53:37;21.10;99.90
18906;DHT22;9585;51.018;4.282;2023-08-17T14:56:04;21.10;99.90
18906;DHT22;9585;51.018;4.282;2023-08-17T14:58:32;21.20;99.90
18906;DHT22;9585;51.018;4.282;2023-08-17T15:01:01;21.20;99.90
18906;DHT22;9585;51.018;4.282;2023-08-17T15:03:29;21.40;99.90
18906;DHT22;9585;51.018;4.282;2023-08-17T15:05:57;21.50;99.90
18906;DHT22;9585;51.018;4.282;2023-08-17T15:08:25;21.50;99.90
18906;DHT22;9585;51.018;4.282;2023-08-17T15:10:52;21.50;99.90
18906;DHT22;9585;51.018;4.282;2023-08-17T15:13:21;21.30;99.90
18906;DHT22;9585;51.018;4.282;2023-08-17T15:15:48;21.20;99.90
18906;DHT22;9585;51.018;4.282;2023-08-17T15:18:18;21.10;99.90
18906;DHT22;9585;51.018;4.282;2023-08-17T15:20:45;21.00;99.90
18906;DHT22;9585;51.018;4.282;2023-08-17T15:23:13;20.80;99.90
18906;DHT22;9585;51.018;4.282;2023-08-17T15:25:41;20.50;99.90
18906;DHT22;9585;51.018;4.282;2023-08-17T15:28:09;20.60;99.90
18906;DHT22;9585;51.018;4.282;2023-08-17T15:30:40;20.50;99.90
18906;DHT22;9585;51.018;4.282;2023-08-17T15:33:08;20.20;99.90
18906;DHT22;9585;51.018;4.282;2023-08-17T15:35:38;20.30;99.90
18906;DHT22;9585;51.018;4.282;2023-08-17T15:38:05;20.40;99.90
18906;DHT22;9585;51.018;4.282;2023-08-17T15:40:33;20.50;99.90
18906;DHT22;9585;51.018;4.282;2023-08-17T15:43:01;20.60;99.90
18906;DHT22;9585;51.018;4.282;2023-08-17T15:45:29;20.60;99.90
18906;DHT22;9585;51.018;4.282;2023-08-17T15:47:56;20.50;99.90
18906;DHT22;9585;51.018;4.282;2023-08-17T15:50:24;20.60;99.90
18906;DHT22;9585;51.018;4.282;2023-08-17T15:52:53;20.70;99.90
18906;DHT22;9585;51.018;4.282;2023-08-17T15:55:21;20.70;99.90
18906;DHT22;9585;51.018;4.282;2023-08-17T15:57:49;20.70;99.90
18906;DHT22;9585;51.018;4.282;2023-08-17T16:00:17;20.70;99.90
18906;DHT22;9585;51.018;4.282;2023-08-17T16:02:45;20.80;99.90
18906;DHT22;9585;51.018;4.282;2023-08-17T16:05:13;20.90;99.90
18906;DHT22;9585;51.018;4.282;2023-08-17T16:07:41;20.80;99.90
18906;DHT22;9585;51.018;4.282;2023-08-17T16:10:10;20.70;99.90